Stanton, TN (38069)

11:58 PM CST on December 07, 2016 (GMT -0600)
Stanton City | | Change Station

Elev 325 ft 35.46 °N, 89.40 °W | Updated 1 second ago

Overcast
Overcast
41.0 °F
Feels Like 41 °F
N
1.1
Wind Variable Wind from NNE
Gusts 2.5 mph

Today
High -- | Low -- °F
--% Chance of Precip.
Yesterday
High -- | Low -- °F
Precip. -- in
Pressure 30.31 in
Visibility 10.0 miles
Clouds Overcast 4900 ft
Windchill 41 °F
Dew Point 26 °F
Humidity 55%
Rainfall 0.00 in
Snow Depth Not available.
6:53 AM 4:44 PM
First Quarter, 60% visible
METAR KNQA 080550Z 36009KT 10SM OVC049 04/M03 A3031
Pressure 30.31 in
Visibility 10.0 miles
Clouds Overcast 4900 ft
Windchill 41 °F
Dew Point 26 °F
Humidity 55%
Rainfall 0.00 in
Snow Depth Not available.
6:53 AM 4:44 PM
First Quarter, 60% visible
METAR KNQA 080550Z 36009KT 10SM OVC049 04/M03 A3031

10-Day Weather Forecast

Almanac

Astronomy

Dec. 07, 2016 Rise Set
Actual Time
Civil Twilight
Nautical Twilight
Astronomical Twilight
Moon
Length of Visible Light
Length of Day
Tomorrow will be .
, % of the Moon is Illuminated

Today's Extremes

State Highs State Lows

Community

WunderPhotos

Upload Photos

1,956,259 photos uploaded!

WunderBlog® & News

Nearby

Air Quality

  Air Quality AQ Index Pollutant
Not available.

Snow Depth

Station Depth Elevation

Earthquake Activity

City Distance Mag. Time & Date
Minimum magnitude displayed is 2.5.

Coastal Water Temperatures

Place Temperature

Stations

Nearby Weather Stations

Station Location Temp. Windchill Dew Point Humidity Wind Precip. Elev Updated Type
                   

Watches & Warnings

There are currently no watches in effect.